Time;durP1;ratioP1;P1;durP2;ratioP2;P2;SDS_P1;SDS_P2;PMS_P1;PMS_P2;Temp;Humidity;BMP_temperature;BMP_pressure;BME280_temperature;BME280_humidity;BME280_pressure;Samples;Min_cycle;Max_cycle;Signal;HPM_P1;HPM_P2
2022/11/22 00:05:21;;;;;;;8.82;1.52;;;9.50;53.20;;;;;;20995741;28;20052;-60
2022/11/22 00:15:22;;;;;;;6.15;1.10;;;9.50;54.00;;;;;;20994641;28;20453;-63
2022/11/22 00:25:24;;;;;;;4.15;1.35;;;9.70;54.20;;;;;;20993842;28;20143;-64
2022/11/22 00:35:25;;;;;;;6.78;1.90;;;9.70;56.10;;;;;;20993432;28;20048;-59
2022/11/22 00:45:27;;;;;;;5.85;1.27;;;9.70;55.60;;;;;;20993952;28;20075;-60
2022/11/22 00:55:28;;;;;;;6.63;1.67;;;9.70;55.60;;;;;;20998831;28;20080;-61
2022/11/22 01:05:30;;;;;;;9.07;1.20;;;9.70;55.00;;;;;;21007724;28;20071;-63
2022/11/22 01:15:32;;;;;;;5.88;1.25;;;9.50;54.20;;;;;;21006780;28;20106;-62
2022/11/22 01:25:33;;;;;;;5.45;1.58;;;9.50;52.90;;;;;;21005318;28;20676;-63
2022/11/22 01:35:35;;;;;;;5.55;1.20;;;9.50;52.80;;;;;;21005455;28;20484;-61
2022/11/22 01:45:41;;;;;;;2.53;1.00;;;9.40;52.10;;;;;;21004773;28;20048;-57
2022/11/22 01:55:44;;;;;;;3.42;1.13;;;9.70;53.00;;;;;;21002909;28;20064;-58
2022/11/22 02:05:46;;;;;;;2.00;0.82;;;9.70;54.80;;;;;;21003474;28;20464;-57
2022/11/22 02:15:50;;;;;;;4.45;1.35;;;9.40;55.60;;;;;;21001469;28;20045;-57
2022/11/22 02:25:58;;;;;;;4.20;0.90;;;9.30;55.50;;;;;;21001845;28;20063;-56
2022/11/22 02:36:00;;;;;;;4.18;1.02;;;9.20;54.90;;;;;;21000369;28;20049;-58
2022/11/22 02:46:07;;;;;;;1.67;0.90;;;9.20;53.80;;;;;;20999808;28;20063;-58
2022/11/22 02:56:10;;;;;;;1.75;0.85;;;9.20;52.40;;;;;;20998071;28;20056;-57
2022/11/22 03:06:12;;;;;;;3.35;1.00;;;9.30;52.40;;;;;;21002486;28;20131;-58
2022/11/22 03:16:15;;;;;;;3.53;0.93;;;9.30;51.60;;;;;;20998235;28;20091;-57
2022/11/22 03:26:17;;;;;;;5.40;1.20;;;9.30;52.70;;;;;;20996569;28;20084;-57
2022/11/22 03:36:20;;;;;;;5.13;1.70;;;9.20;53.20;;;;;;20997117;28;20056;-58
2022/11/22 03:46:23;;;;;;;3.83;1.17;;;9.20;53.50;;;;;;20996010;28;20056;-58
2022/11/22 03:56:24;;;;;;;2.85;0.82;;;9.10;53.10;;;;;;20996215;28;20056;-56
2022/11/22 04:06:26;;;;;;;4.30;1.95;;;9.20;52.60;;;;;;20996551;28;20064;-57
2022/11/22 04:16:27;;;;;;;4.18;1.10;;;9.00;53.80;;;;;;20995228;28;20052;-58
2022/11/22 04:26:30;;;;;;;5.15;1.05;;;9.20;56.00;;;;;;20993547;28;20059;-57
2022/11/22 04:36:33;;;;;;;7.00;1.10;;;9.10;55.60;;;;;;21009075;28;20108;-58
2022/11/22 04:46:35;;;;;;;3.83;1.08;;;9.20;54.00;;;;;;21009179;28;20045;-59
2022/11/22 04:56:37;;;;;;;3.00;1.30;;;9.20;53.60;;;;;;21008193;28;20053;-58
2022/11/22 05:06:38;;;;;;;5.22;1.23;;;9.40;52.70;;;;;;21011541;28;20045;-57
2022/11/22 05:16:40;;;;;;;4.25;0.93;;;9.50;53.40;;;;;;21013961;28;20056;-59
2022/11/22 05:26:43;;;;;;;3.75;1.40;;;9.50;53.30;;;;;;21005509;28;20059;-57
2022/11/22 05:36:45;;;;;;;3.78;1.50;;;9.30;53.00;;;;;;21005855;28;20114;-56
2022/11/22 05:46:47;;;;;;;4.75;1.20;;;9.40;54.10;;;;;;21005012;28;20408;-58
2022/11/22 05:56:48;;;;;;;6.10;1.40;;;9.30;55.00;;;;;;21003449;28;20143;-57
2022/11/22 06:06:50;;;;;;;4.63;1.55;;;9.30;55.80;;;;;;21003467;28;20048;-58
2022/11/22 06:16:51;;;;;;;5.07;1.10;;;9.40;55.70;;;;;;21001551;28;20135;-59
2022/11/22 06:26:53;;;;;;;7.05;1.23;;;9.30;55.90;;;;;;21001157;28;20500;-58
2022/11/22 06:36:55;;;;;;;10.05;1.60;;;9.20;55.90;;;;;;21000600;28;20094;-57
2022/11/22 06:46:56;;;;;;;6.20;1.38;;;9.20;55.90;;;;;;21002172;28;20052;-59
2022/11/22 06:56:58;;;;;;;6.53;1.30;;;9.50;55.60;;;;;;20997576;28;20417;-56
2022/11/22 07:06:59;;;;;;;6.75;1.38;;;9.50;55.90;;;;;;20997860;28;20489;-59
2022/11/22 07:17:00;;;;;;;4.45;1.58;;;9.50;56.30;;;;;;20997147;28;20067;-57
2022/11/22 07:27:03;;;;;;;7.45;1.65;;;9.70;56.00;;;;;;20996393;28;20056;-58
2022/11/22 07:37:04;;;;;;;4.60;1.50;;;9.70;56.00;;;;;;20996410;28;20109;-57
2022/11/22 07:47:06;;;;;;;4.57;1.42;;;9.90;54.80;;;;;;20994588;28;20044;-60
2022/11/22 07:57:09;;;;;;;5.55;1.70;;;9.90;56.90;;;;;;20995838;28;20183;-59
2022/11/22 08:07:10;;;;;;;7.18;1.75;;;10.00;56.30;;;;;;21005224;28;20045;-60
2022/11/22 08:17:12;;;;;;;7.90;1.85;;;10.10;57.30;;;;;;21011664;28;20458;-59
2022/11/22 08:27:14;;;;;;;7.45;2.05;;;10.00;58.00;;;;;;21010758;28;20060;-61
2022/11/22 08:37:16;;;;;;;10.60;3.08;;;10.00;58.00;;;;;;21009978;28;20056;-60
2022/11/22 08:47:20;;;;;;;5.45;2.05;;;10.10;57.90;;;;;;21010468;28;20457;-62
2022/11/22 08:57:22;;;;;;;6.30;2.58;;;10.10;58.00;;;;;;21009860;28;20060;-61
2022/11/22 09:07:23;;;;;;;7.10;2.38;;;10.10;59.90;;;;;;21010074;28;20048;-61
2022/11/22 09:17:24;;;;;;;9.93;2.60;;;10.20;60.60;;;;;;21009725;28;20066;-60
2022/11/22 09:27:26;;;;;;;7.97;2.00;;;10.10;60.40;;;;;;21006437;28;20139;-62
2022/11/22 09:37:31;;;;;;;6.70;2.10;;;10.20;59.80;;;;;;21005796;28;20059;-62
2022/11/22 09:47:56;;;;;;;7.55;2.30;;;10.50;59.90;;;;;;21006048;28;20514;-59
2022/11/22 09:58:16;;;;;;;5.55;2.38;;;10.40;60.40;;;;;;21003648;28;20135;-60
2022/11/22 10:08:26;;;;;;;10.18;1.83;;;10.70;59.70;;;;;;21002887;28;20102;-59
2022/11/22 10:19:12;;;;;;;7.05;1.65;;;11.00;59.70;;;;;;21013265;28;20405;-58
2022/11/22 10:29:19;;;;;;;13.27;2.78;;;11.20;59.60;;;;;;20984759;28;20056;-60
2022/11/22 10:39:39;;;;;;;12.77;2.85;;;11.30;60.10;;;;;;20999733;28;20052;-60
2022/11/22 10:49:51;;;;;;;8.85;2.13;;;12.50;56.20;;;;;;20998557;28;20053;-62
2022/11/22 11:00:17;;;;;;;12.80;2.72;;;11.50;58.40;;;;;;20997597;28;20052;-57
2022/11/22 11:10:33;;;;;;;11.30;3.50;;;11.30;60.40;;;;;;20997513;28;20052;-58
2022/11/22 11:20:40;;;;;;;11.48;3.05;;;11.40;61.10;;;;;;20996412;28;20055;-57
2022/11/22 11:30:45;;;;;;;17.10;3.13;;;11.70;63.40;;;;;;20996481;28;20546;-59
2022/11/22 11:40:47;;;;;;;12.37;2.77;;;11.80;65.00;;;;;;20996188;28;20139;-59
2022/11/22 11:50:48;;;;;;;9.95;2.75;;;12.20;64.40;;;;;;20995574;28;20488;-59
2022/11/22 12:00:50;;;;;;;15.98;3.22;;;12.30;65.40;;;;;;20995019;28;20045;-59
2022/11/22 12:11:03;;;;;;;17.02;3.25;;;12.50;64.50;;;;;;20994513;28;20076;-56
2022/11/22 12:21:05;;;;;;;11.98;2.53;;;13.00;65.00;;;;;;20994578;28;20102;-58
2022/11/22 12:31:22;;;;;;;12.82;2.85;;;12.60;65.20;;;;;;20993631;28;20098;-59
2022/11/22 12:41:27;;;;;;;11.98;2.50;;;12.50;66.20;;;;;;20994050;28;20052;-58
2022/11/22 12:51:43;;;;;;;13.13;2.78;;;12.20;66.80;;;;;;20998225;28;20053;-59
2022/11/22 13:01:57;;;;;;;13.20;3.00;;;13.50;64.00;;;;;;21007838;28;20056;-58
2022/11/22 13:12:12;;;;;;;10.07;2.88;;;13.70;64.70;;;;;;21007455;28;20049;-60
2022/11/22 13:22:32;;;;;;;7.35;2.10;;;14.00;62.60;;;;;;21006642;28;20049;-55
2022/11/22 13:32:35;;;;;;;8.13;2.20;;;12.80;66.50;;;;;;21004651;28;20056;-54
2022/11/22 13:42:37;;;;;;;9.77;4.65;;;12.40;68.80;;;;;;21004994;28;20048;-54
2022/11/22 13:53:18;;;;;;;6.22;1.80;;;12.20;70.20;;;;;;21003458;28;20048;-55
2022/11/22 14:03:40;;;;;;;5.32;1.80;;;12.20;73.00;;;;;;21002214;28;20091;-54
2022/11/22 14:14:00;;;;;;;7.40;2.08;;;11.90;73.90;;;;;;21003004;28;20048;-55
2022/11/22 14:24:26;;;;;;;8.05;1.58;;;11.80;74.40;;;;;;21001939;28;20057;-54
2022/11/22 14:34:29;;;;;;;4.70;1.48;;;11.70;75.10;;;;;;20999835;28;20052;-56
2022/11/22 14:44:34;;;;;;;4.22;1.35;;;11.70;76.10;;;;;;20998674;28;20048;-56
2022/11/22 14:54:45;;;;;;;3.05;1.23;;;11.70;76.60;;;;;;20998844;28;20052;-55
2022/11/22 15:05:06;;;;;;;6.18;2.28;;;11.80;76.70;;;;;;20998655;28;20041;-56
2022/11/22 15:15:28;;;;;;;4.88;1.75;;;11.70;77.70;;;;;;20996614;28;20094;-58
2022/11/22 15:25:30;;;;;;;3.95;1.40;;;11.70;77.50;;;;;;20982473;28;20079;-59
2022/11/22 15:36:00;;;;;;;5.18;1.73;;;11.50;78.60;;;;;;20993681;28;20084;-58
2022/11/22 15:46:03;;;;;;;3.28;1.23;;;11.50;79.00;;;;;;20992362;28;20127;-60
2022/11/22 15:56:41;;;;;;;7.57;1.90;;;11.20;79.50;;;;;;20990720;28;20088;-60
2022/11/22 16:06:44;;;;;;;6.25;1.83;;;11.20;80.20;;;;;;20990674;28;20045;-61
2022/11/22 16:16:46;;;;;;;2.55;1.15;;;11.30;78.90;;;;;;20990851;28;20088;-59
2022/11/22 16:26:56;;;;;;;4.28;1.88;;;11.40;79.10;;;;;;20997931;28;20056;-60
2022/11/22 16:36:58;;;;;;;3.30;1.20;;;11.30;79.80;;;;;;21007530;28;20178;-60
2022/11/22 16:47:00;;;;;;;5.80;1.58;;;11.40;80.10;;;;;;21006514;28;20056;-57
2022/11/22 16:57:07;;;;;;;4.03;1.83;;;11.40;80.80;;;;;;21002715;28;20083;-59
2022/11/22 17:07:10;;;;;;;3.85;1.50;;;11.20;81.20;;;;;;21004155;28;20055;-60
2022/11/22 17:17:12;;;;;;;1.83;0.93;;;11.40;81.50;;;;;;21003933;28;20057;-57
2022/11/22 17:27:14;;;;;;;3.75;1.00;;;12.30;79.40;;;;;;21000695;28;20052;-57
2022/11/22 17:37:16;;;;;;;1.48;0.90;;;12.80;77.40;;;;;;20999273;28;20053;-59
2022/11/22 17:47:17;;;;;;;1.48;0.82;;;13.20;75.40;;;;;;21001526;28;20040;-57
2022/11/22 17:57:20;;;;;;;1.85;1.10;;;13.60;74.20;;;;;;20998501;28;20095;-57
2022/11/22 18:07:22;;;;;;;1.33;1.20;;;13.30;74.30;;;;;;20999582;28;20044;-59
2022/11/22 18:17:25;;;;;;;2.65;1.80;;;12.40;77.70;;;;;;20997631;28;20079;-56
2022/11/22 18:27:27;;;;;;;3.45;2.10;;;12.00;79.70;;;;;;20996169;28;20496;-58
2022/11/22 18:37:29;;;;;;;2.40;1.70;;;11.90;80.70;;;;;;20993550;28;20064;-57
2022/11/22 18:47:32;;;;;;;2.45;2.17;;;12.20;80.30;;;;;;20993422;28;20489;-59
2022/11/22 18:57:34;;;;;;;2.60;1.60;;;12.20;80.80;;;;;;20995131;28;20052;-60
2022/11/22 19:07:36;;;;;;;2.30;1.48;;;12.10;81.20;;;;;;20998368;28;20530;-56
2022/11/22 19:17:39;;;;;;;3.72;2.78;;;12.30;80.70;;;;;;20997272;28;20048;-56
2022/11/22 19:27:40;;;;;;;2.42;1.17;;;12.30;81.00;;;;;;20994870;28;20086;-54
2022/11/22 19:37:41;;;;;;;2.13;0.95;;;12.20;81.50;;;;;;20994929;28;20131;-56
2022/11/22 19:47:43;;;;;;;1.40;0.90;;;12.40;81.20;;;;;;20995520;28;20056;-55
2022/11/22 19:57:45;;;;;;;2.08;1.15;;;12.50;81.20;;;;;;20979076;28;20095;-57
2022/11/22 20:07:47;;;;;;;2.67;1.63;;;12.60;81.40;;;;;;21022018;28;20113;-55
2022/11/22 20:17:50;;;;;;;1.70;1.10;;;12.50;82.30;;;;;;21023264;28;20480;-56
2022/11/22 20:27:52;;;;;;;2.00;1.30;;;12.60;82.40;;;;;;21002724;28;20094;-56
2022/11/22 20:37:53;;;;;;;2.55;1.35;;;12.60;82.90;;;;;;21021104;28;20122;-56
2022/11/22 20:47:55;;;;;;;2.92;1.48;;;12.70;83.00;;;;;;21021193;28;20119;-56
2022/11/22 20:57:58;;;;;;;1.98;1.25;;;12.70;83.60;;;;;;21002418;28;20056;-57
2022/11/22 21:08:03;;;;;;;2.87;1.50;;;12.70;83.70;;;;;;21020116;28;20374;-58
2022/11/22 21:18:05;;;;;;;1.85;1.48;;;12.90;83.20;;;;;;21005706;28;20143;-56
2022/11/22 21:28:06;;;;;;;1.95;1.30;;;12.90;83.30;;;;;;21004984;28;20584;-57
2022/11/22 21:38:08;;;;;;;2.85;1.30;;;13.00;83.30;;;;;;21004286;28;20048;-57
2022/11/22 21:48:10;;;;;;;3.72;2.63;;;13.00;83.40;;;;;;21003434;28;20055;-57
2022/11/22 21:58:13;;;;;;;3.22;1.63;;;13.10;83.40;;;;;;21004304;28;20122;-56
2022/11/22 22:08:16;;;;;;;4.68;1.70;;;13.20;83.80;;;;;;21003168;28;20500;-58
2022/11/22 22:18:18;;;;;;;3.90;1.60;;;13.20;84.20;;;;;;21002301;28;20048;-57
2022/11/22 22:28:20;;;;;;;4.03;1.88;;;13.20;84.70;;;;;;21001191;28;20560;-56
2022/11/22 22:38:21;;;;;;;4.97;2.25;;;13.30;84.40;;;;;;21000958;28;20055;-57
2022/11/22 22:48:24;;;;;;;5.82;2.10;;;13.50;84.10;;;;;;20999437;28;20049;-57
2022/11/22 22:58:25;;;;;;;4.90;2.20;;;13.60;84.10;;;;;;20999111;28;20056;-57
2022/11/22 23:08:27;;;;;;;5.80;3.03;;;13.70;84.10;;;;;;20997749;28;20131;-56
2022/11/22 23:18:28;;;;;;;9.63;2.47;;;13.70;84.10;;;;;;20996994;28;20056;-56
2022/11/22 23:28:32;;;;;;;3.80;2.85;;;13.80;84.00;;;;;;20996217;28;20409;-55
2022/11/22 23:38:34;;;;;;;8.35;3.47;;;13.80;84.10;;;;;;20995845;28;20458;-54
2022/11/22 23:48:36;;;;;;;8.00;2.00;;;13.80;83.80;;;;;;20995844;28;20040;-56
2022/11/22 23:58:37;;;;;;;5.97;2.08;;;13.80;84.00;;;;;;20995404;28;20079;-56
